Airfield :
LOGIN :

Register | Disclaimer

   EN    FR    IT 

 










Legend :    VFR   Marginal VFR   IFR   Intensive IFR   Very Intensive IFR
Visi :
Ceiling :
>= 8 km
>= 3000ft
5 to 8 km
1000 to 3000 ft
1500m to 5 km
500 to 1000 ft
800 to 1500m
200 to 500 ft
< 800m
< 200 ft
Symbols :   Thunderstorms  Fog  Heavy snow  Heavy precipitations  Wind > 20 kt
SIGMETs :     Misc.  Thunderstorms  Icing  Turbulence  Mountain Waves  Volcanic Ashes







- Airport Elevation : 158 ft
- IATA code : QAR


EHDL - Deelen Airbase

CURRENT METAR :
  • 230855Z AUTO 19017KT 140V240 9999 OVC036 14/07 Q0996 BLU

EXPIRED METARs :
  • 230825Z AUTO 19017KT 140V240 9999 SCT047 SCT056 BKN067 13/06 Q0996 BLU
  • 230755Z AUTO 19017G30KT 130V240 9999 OVC040 13/06 Q0996 BLU
  • 230725Z AUTO 18017KT 120V230 9999 SCT041 SCT046 BKN062 13/06 Q0996 BLU
  • 230655Z AUTO 18016KT 130V230 9999 OVC180 13/05 Q0996 BLU
  • 230625Z AUTO 17014KT 120V220 9999 SCT094 OVC100 12/05 Q0996 BLU

Expired Forecast.
No reported NOTAMs for that airfield.



MET'MAP, your aeronautical weather chart ! - Copyright ORBIFLY December 2007 - Disclaimer

ORBIFLY MET'MAP TEAM :

Programming & Development : Alexandra Zaïnal
Concept & Development : Baudouin d'Aumeries
Co-Development & Prog : Marc-Olivier Méhu
Technical & hardware support : Manuel Goepfert

Contact : metmap@orbifly.com




SOURCES & CREDITS :

   NOAA